Time;durP1;ratioP1;P1;durP2;ratioP2;P2;SDS_P1;SDS_P2;PMS_P1;PMS_P2;Temp;Humidity;BMP_temperature;BMP_pressure;BME280_temperature;BME280_humidity;BME280_pressure;Samples;Min_cycle;Max_cycle;Signal;HPM_P1;HPM_P2
2022/04/12 00:00:24;;;;;;;;;53.25;46.00;9.10;50.50;;;;;;4956748;28;8982;-58
2022/04/12 00:02:50;;;;;;;;;54.75;46.00;9.10;50.70;;;;;;4957626;28;8812;-55
2022/04/12 00:05:16;;;;;;;;;45.00;39.75;9.60;49.30;;;;;;4957580;28;8780;-58
2022/04/12 00:07:43;;;;;;;;;59.00;49.00;9.80;48.80;;;;;;4957607;28;8818;-55
2022/04/12 00:10:11;;;;;;;;;57.75;48.00;9.90;48.40;;;;;;4957518;28;8793;-56
2022/04/12 00:12:37;;;;;;;;;64.75;52.25;10.00;48.20;;;;;;4957409;28;9474;-58
2022/04/12 00:15:05;;;;;;;;;63.00;52.50;10.00;48.80;;;;;;4957640;28;8800;-55
2022/04/12 00:20:18;;;;;;;;;71.25;57.50;9.60;49.00;;;;;;4947401;29;8897;-56
2022/04/12 00:22:44;;;;;;;;;65.50;52.25;9.90;49.00;;;;;;4956856;28;9467;-56
2022/04/12 00:25:11;;;;;;;;;65.00;51.75;9.80;49.70;;;;;;4948520;28;9430;-57
2022/04/12 00:27:38;;;;;;;;;69.00;55.50;9.80;50.00;;;;;;4938081;29;8809;-57
2022/04/12 00:30:06;;;;;;;;;74.75;57.75;9.60;50.30;;;;;;4938151;29;8762;-55
2022/04/12 00:32:33;;;;;;;;;73.25;59.00;9.40;51.50;;;;;;4937956;29;8805;-56
2022/04/12 00:34:59;;;;;;;;;70.25;55.00;9.50;51.10;;;;;;4938167;29;8779;-57
2022/04/12 00:37:26;;;;;;;;;69.50;55.00;9.60;50.80;;;;;;4938179;29;8928;-56
2022/04/12 00:39:52;;;;;;;;;70.25;56.50;9.60;50.90;;;;;;4937968;29;8785;-57
2022/04/12 00:42:18;;;;;;;;;61.00;49.75;9.70;50.90;;;;;;4937866;29;8787;-55
2022/04/12 00:44:44;;;;;;;;;65.25;52.25;9.60;51.10;;;;;;4938079;29;8822;-55
2022/04/12 00:47:10;;;;;;;;;61.00;49.00;9.60;50.70;;;;;;4936767;29;8799;-57
2022/04/12 00:49:36;;;;;;;;;67.50;54.00;9.50;50.70;;;;;;4937913;29;8786;-57
2022/04/12 00:52:04;;;;;;;;;59.50;48.75;9.40;51.60;;;;;;4937498;29;9592;-56
2022/04/12 00:54:32;;;;;;;;;52.50;45.00;9.20;50.90;;;;;;4937619;29;8869;-55
2022/04/12 00:56:59;;;;;;;;;54.25;46.50;9.50;50.60;;;;;;4937788;29;8795;-57
2022/04/12 00:59:25;;;;;;;;;57.75;48.25;9.40;50.70;;;;;;4937795;29;8771;-56
2022/04/12 01:01:51;;;;;;;;;57.25;47.00;9.50;50.40;;;;;;4937824;29;8779;-56
2022/04/12 01:04:18;;;;;;;;;61.75;50.50;9.30;51.10;;;;;;4937692;29;8937;-56
2022/04/12 01:06:44;;;;;;;;;71.00;55.00;9.30;50.90;;;;;;4937673;29;8786;-55
2022/04/12 01:09:10;;;;;;;;;83.50;66.75;9.20;51.70;;;;;;4937444;29;8763;-56
2022/04/12 01:11:37;;;;;;;;;89.75;71.25;9.00;52.00;;;;;;4937670;29;8929;-56
2022/04/12 01:14:03;;;;;;;;;87.50;72.25;9.10;51.60;;;;;;4937357;29;8889;-55
2022/04/12 01:16:29;;;;;;;;;74.50;59.25;8.80;52.60;;;;;;4937546;29;8805;-57
2022/04/12 01:18:55;;;;;;;;;66.25;55.25;8.70;52.70;;;;;;4937586;29;8764;-57
2022/04/12 01:21:21;;;;;;;;;70.50;56.25;8.70;52.90;;;;;;4937236;29;9608;-56
2022/04/12 01:24:04;;;;;;;;;57.50;46.00;8.70;52.80;;;;;;4937184;29;8838;-56
2022/04/12 01:26:31;;;;;;;;;50.25;44.25;8.40;54.10;;;;;;4937137;29;8783;-57
2022/04/12 01:28:57;;;;;;;;;42.25;40.75;8.40;54.20;;;;;;4937242;29;8862;-57
2022/04/12 01:31:26;;;;;;;;;48.50;42.25;8.50;54.10;;;;;;4937317;29;8775;-56
2022/04/12 01:33:53;;;;;;;;;40.25;37.00;8.30;54.00;;;;;;4937094;29;8791;-57
2022/04/12 01:36:19;;;;;;;;;39.25;36.75;8.70;53.70;;;;;;4937315;29;8917;-56
2022/04/12 01:38:46;;;;;;;;;44.00;38.25;8.60;53.40;;;;;;4937023;29;8806;-56
2022/04/12 01:41:12;;;;;;;;;44.75;37.00;8.60;53.40;;;;;;4939471;29;8818;-57
2022/04/12 01:43:38;;;;;;;;;39.75;38.25;8.00;55.50;;;;;;4943295;29;8823;-55
2022/04/12 01:46:03;;;;;;;;;36.75;33.75;7.80;57.00;;;;;;4943536;29;8790;-56
2022/04/12 01:48:29;;;;;;;;;41.50;37.75;7.80;56.80;;;;;;4943269;29;8902;-56
2022/04/12 01:50:55;;;;;;;;;38.25;35.50;8.00;56.00;;;;;;4943254;29;8826;-56
2022/04/12 01:53:21;;;;;;;;;41.75;37.50;8.40;54.50;;;;;;4943505;29;9629;-56
2022/04/12 01:55:47;;;;;;;;;41.75;37.50;8.50;54.40;;;;;;4943221;29;8814;-56
2022/04/12 01:58:12;;;;;;;;;43.75;37.25;8.40;54.10;;;;;;4943222;29;8783;-57
2022/04/12 02:00:38;;;;;;;;;38.75;36.75;8.60;54.10;;;;;;4943388;29;8901;-57
2022/04/12 02:03:04;;;;;;;;;40.25;37.75;8.70;53.80;;;;;;4958148;29;8849;-58
2022/04/12 02:05:30;;;;;;;;;36.25;35.25;8.70;54.00;;;;;;4943185;29;8775;-56
2022/04/12 02:07:56;;;;;;;;;42.00;37.25;8.60;53.60;;;;;;4943196;29;8795;-56
2022/04/12 02:10:22;;;;;;;;;38.00;37.00;8.60;53.50;;;;;;4943144;29;8838;-56
2022/04/12 02:12:49;;;;;;;;;45.00;39.25;8.50;53.80;;;;;;4943331;29;8811;-56
2022/04/12 02:15:15;;;;;;;;;41.50;34.00;8.60;53.40;;;;;;4943312;29;8774;-57
2022/04/12 02:17:41;;;;;;;;;41.25;38.00;8.70;53.20;;;;;;4943082;29;8798;-55
2022/04/12 02:20:07;;;;;;;;;39.75;37.00;8.60;53.30;;;;;;4943308;29;8794;-56
2022/04/12 02:22:34;;;;;;;;;48.75;41.50;8.60;53.40;;;;;;4943158;29;8779;-55
2022/04/12 02:25:00;;;;;;;;;42.25;39.50;8.50;53.80;;;;;;4943011;29;8897;-56
2022/04/12 02:27:25;;;;;;;;;42.25;41.00;8.50;54.10;;;;;;4942975;29;8901;-55
2022/04/12 02:29:51;;;;;;;;;43.50;40.25;8.50;53.70;;;;;;4943178;29;8779;-55
2022/04/12 02:32:17;;;;;;;;;49.75;40.75;8.60;53.20;;;;;;4943241;29;8783;-57
2022/04/12 02:34:43;;;;;;;;;44.25;39.50;8.50;53.40;;;;;;4943183;29;8797;-56
2022/04/12 02:37:08;;;;;;;;;49.00;41.00;8.50;53.80;;;;;;4942934;29;8802;-55
2022/04/12 02:39:34;;;;;;;;;36.75;34.00;8.60;53.50;;;;;;4942972;29;8858;-56
2022/04/12 02:42:01;;;;;;;;;43.00;39.00;8.40;54.00;;;;;;4943262;29;8823;-55
2022/04/12 02:44:27;;;;;;;;;36.00;34.25;8.50;53.40;;;;;;4943096;29;8814;-56
2022/04/12 02:46:53;;;;;;;;;45.00;40.25;8.30;54.30;;;;;;4943088;29;8812;-56
2022/04/12 02:49:19;;;;;;;;;44.25;40.25;8.20;54.60;;;;;;4942835;29;8869;-56
2022/04/12 02:51:47;;;;;;;;;37.50;37.50;7.90;55.40;;;;;;4942628;29;8834;-57
2022/04/12 02:54:14;;;;;;;;;35.25;33.75;8.20;55.00;;;;;;4939994;29;8787;-58
2022/04/12 02:56:39;;;;;;;;;52.25;42.00;8.30;54.00;;;;;;4939706;29;8787;-55
2022/04/12 02:59:05;;;;;;;;;49.50;43.75;8.40;54.00;;;;;;4939976;29;8818;-58
2022/04/12 03:01:31;;;;;;;;;61.25;50.00;8.00;54.70;;;;;;4939747;29;8783;-55
2022/04/12 03:03:57;;;;;;;;;59.00;49.50;8.10;55.00;;;;;;4939572;29;9060;-56
2022/04/12 03:06:23;;;;;;;;;56.75;47.50;8.10;55.00;;;;;;4939710;29;8797;-56
2022/04/12 03:08:49;;;;;;;;;53.75;45.50;8.00;54.80;;;;;;4939802;29;8787;-55
2022/04/12 03:11:14;;;;;;;;;56.00;43.50;8.00;55.10;;;;;;4939776;29;8814;-57
2022/04/12 03:13:41;;;;;;;;;56.75;44.00;8.40;54.40;;;;;;4939501;29;9426;-56
2022/04/12 03:16:06;;;;;;;;;45.50;41.75;8.40;53.70;;;;;;4939404;29;8801;-55
2022/04/12 03:18:32;;;;;;;;;49.50;42.50;8.50;53.20;;;;;;4939337;29;8795;-55
2022/04/12 03:20:58;;;;;;;;;48.50;40.25;8.40;54.10;;;;;;4942299;28;8816;-55
2022/04/12 03:23:24;;;;;;;;;56.00;44.75;8.50;53.00;;;;;;4946266;29;8827;-56
2022/04/12 03:25:52;;;;;;;;;44.75;41.25;7.90;54.70;;;;;;4950167;29;8807;-56
2022/04/12 03:28:18;;;;;;;;;45.50;41.25;7.80;55.50;;;;;;4939555;29;9402;-55
2022/04/12 03:30:44;;;;;;;;;38.25;37.00;7.70;55.50;;;;;;4939458;29;8787;-56
2022/04/12 03:33:10;;;;;;;;;49.25;43.75;7.80;55.30;;;;;;4939345;29;8795;-55
2022/04/12 03:35:36;;;;;;;;;39.00;37.00;8.00;54.40;;;;;;4939023;29;8795;-56
2022/04/12 03:38:01;;;;;;;;;38.75;37.25;8.10;54.20;;;;;;4939008;29;8909;-56
2022/04/12 03:40:31;;;;;;;;;45.75;40.25;8.00;53.80;;;;;;4950354;28;8844;-54
2022/04/12 03:43:01;;;;;;;;;37.00;34.25;7.90;54.50;;;;;;4950483;28;8807;-55
2022/04/12 03:45:28;;;;;;;;;40.00;36.25;7.80;55.00;;;;;;4939217;29;8787;-55
2022/04/12 03:47:54;;;;;;;;;39.50;34.75;7.70;54.80;;;;;;4954104;28;8823;-55
2022/04/12 03:50:20;;;;;;;;;40.50;39.00;7.50;56.00;;;;;;4957608;28;8783;-56
2022/04/12 03:52:46;;;;;;;;;42.75;38.25;7.20;57.10;;;;;;4958168;28;8764;-55
2022/04/12 03:55:12;;;;;;;;;48.25;40.50;7.30;57.00;;;;;;4958074;28;8772;-55
2022/04/12 03:57:38;;;;;;;;;51.25;45.25;7.50;56.80;;;;;;4958038;28;8806;-54
2022/04/12 04:00:09;;;;;;;;;60.75;48.25;7.60;56.50;;;;;;4957737;28;8796;-56
2022/04/12 04:02:35;;;;;;;;;64.50;52.00;7.60;56.00;;;;;;4957839;28;8783;-54
2022/04/12 04:05:01;;;;;;;;;63.50;52.50;7.80;55.70;;;;;;4957362;28;8772;-56
2022/04/12 04:07:27;;;;;;;;;50.25;43.50;7.20;57.80;;;;;;4957663;28;8796;-54
2022/04/12 04:09:54;;;;;;;;;58.75;47.25;7.70;56.10;;;;;;4957498;28;8776;-56
2022/04/12 04:12:20;;;;;;;;;62.50;50.75;7.80;56.00;;;;;;4957456;28;8894;-55
2022/04/12 04:14:47;;;;;;;;;50.00;43.00;8.10;54.80;;;;;;4957726;28;8772;-55
2022/04/12 04:17:13;;;;;;;;;53.25;43.75;8.20;54.50;;;;;;4957631;28;9727;-55
2022/04/12 04:19:39;;;;;;;;;54.50;46.50;8.10;54.20;;;;;;4957413;28;8784;-54
2022/04/12 04:22:05;;;;;;;;;51.75;45.25;8.10;54.10;;;;;;4957618;28;8791;-55
2022/04/12 04:24:31;;;;;;;;;50.25;41.50;7.90;54.40;;;;;;4957306;28;9529;-55
2022/04/12 04:26:56;;;;;;;;;57.25;47.00;7.90;54.50;;;;;;4957385;28;8784;-54
2022/04/12 04:29:33;;;;;;;;;46.75;38.00;8.20;53.90;;;;;;4957279;28;9436;-55
2022/04/12 04:31:58;;;;;;;;;60.25;49.00;8.40;53.40;;;;;;4953791;28;8819;-55
2022/04/12 04:34:24;;;;;;;;;66.00;54.25;8.10;53.90;;;;;;4947422;28;8901;-55
2022/04/12 04:36:50;;;;;;;;;69.50;55.00;8.30;53.70;;;;;;4957015;28;8800;-55
2022/04/12 04:39:16;;;;;;;;;77.00;62.00;8.20;53.80;;;;;;4950584;28;8901;-53
2022/04/12 04:41:42;;;;;;;;;76.00;58.75;8.10;54.60;;;;;;4947061;28;8812;-58
2022/04/12 04:44:07;;;;;;;;;68.75;56.75;7.60;56.30;;;;;;4957084;28;8812;-57
2022/04/12 04:46:33;;;;;;;;;72.50;56.00;7.40;56.70;;;;;;4955750;28;9493;-54
2022/04/12 04:48:59;;;;;;;;;77.25;61.50;7.10;58.30;;;;;;4948360;29;8834;-55
2022/04/12 04:51:25;;;;;;;;;75.75;60.00;7.20;58.90;;;;;;4959135;28;8836;-56
2022/04/12 04:53:58;;;;;;;;;72.75;57.00;7.10;59.00;;;;;;4948327;29;8817;-55
2022/04/12 04:56:27;;;;;;;;;80.25;62.50;7.20;59.10;;;;;;4937572;29;8785;-54
2022/04/12 04:58:54;;;;;;;;;60.00;48.50;7.30;59.00;;;;;;4937617;29;8819;-54
2022/04/12 05:01:20;;;;;;;;;77.50;61.25;7.30;59.30;;;;;;4937507;29;8785;-54
2022/04/12 05:03:47;;;;;;;;;71.25;57.25;7.00;60.10;;;;;;4948450;28;8811;-57
2022/04/12 05:06:14;;;;;;;;;72.00;58.50;7.30;59.90;;;;;;4952378;28;8781;-54
2022/04/12 05:08:40;;;;;;;;;75.25;60.25;7.50;58.70;;;;;;4975525;28;8781;-56
2022/04/12 05:11:06;;;;;;;;;74.50;59.50;7.40;58.90;;;;;;4975814;28;8824;-57
2022/04/12 05:13:31;;;;;;;;;74.75;58.25;7.70;57.80;;;;;;4958709;28;8815;-55
2022/04/12 05:15:57;;;;;;;;;76.75;60.25;8.00;57.20;;;;;;4950488;28;8794;-55
2022/04/12 05:18:23;;;;;;;;;81.50;65.25;7.80;57.00;;;;;;4955206;28;8775;-56
2022/04/12 05:20:49;;;;;;;;;72.75;57.00;7.70;57.40;;;;;;4956597;28;8794;-54
2022/04/12 05:23:16;;;;;;;;;76.75;62.00;8.10;56.20;;;;;;4956475;28;8833;-56
2022/04/12 05:25:42;;;;;;;;;79.50;63.50;7.60;57.60;;;;;;4956542;28;9441;-55
2022/04/12 05:28:08;;;;;;;;;88.25;71.75;7.60;58.30;;;;;;4956584;28;8751;-56
2022/04/12 05:30:33;;;;;;;;;79.00;63.00;7.70;57.80;;;;;;4956258;28;8876;-57
2022/04/12 05:32:59;;;;;;;;;79.25;63.00;7.90;57.00;;;;;;4956205;28;8787;-56
2022/04/12 05:35:25;;;;;;;;;75.75;62.25;8.40;55.10;;;;;;4956255;28;8860;-57
2022/04/12 05:37:54;;;;;;;;;76.50;61.25;8.30;55.40;;;;;;4956311;28;8874;-56
2022/04/12 05:40:21;;;;;;;;;78.00;63.75;8.80;53.80;;;;;;4955490;28;8815;-56
2022/04/12 05:42:48;;;;;;;;;81.50;61.50;8.90;52.80;;;;;;4955968;29;8763;-56
2022/04/12 05:45:14;;;;;;;;;82.00;66.00;9.00;52.70;;;;;;4956107;29;8783;-58
2022/04/12 05:47:44;;;;;;;;;78.50;61.75;9.20;52.20;;;;;;4956348;29;8775;-56
2022/04/12 05:50:12;;;;;;;;;78.25;63.00;9.30;51.80;;;;;;4955802;29;8763;-56
2022/04/12 05:52:38;;;;;;;;;78.25;63.00;9.00;52.70;;;;;;4956373;28;8784;-57
2022/04/12 05:55:06;;;;;;;;;74.00;58.25;8.60;53.60;;;;;;4956245;28;8784;-55
2022/04/12 05:57:34;;;;;;;;;84.75;66.25;9.00;52.80;;;;;;4956258;28;8788;-56
2022/04/12 05:59:59;;;;;;;;;86.25;69.50;9.20;52.50;;;;;;4955876;28;8776;-56
2022/04/12 06:02:25;;;;;;;;;91.50;74.75;9.60;51.60;;;;;;4956155;29;8820;-55
2022/04/12 06:04:51;;;;;;;;;85.25;71.00;9.90;51.20;;;;;;4956005;29;8832;-56
2022/04/12 06:07:16;;;;;;;;;75.75;62.00;10.10;50.80;;;;;;4955832;29;9427;-56
2022/04/12 06:09:42;;;;;;;;;74.00;60.50;10.20;50.30;;;;;;4955979;29;8853;-55
2022/04/12 06:12:08;;;;;;;;;75.75;60.00;10.20;50.30;;;;;;4956132;29;8832;-55
2022/04/12 06:14:34;;;;;;;;;74.75;57.50;10.20;50.10;;;;;;4956137;28;8803;-55
2022/04/12 06:17:00;;;;;;;;;77.50;62.25;9.90;50.10;;;;;;4955970;29;8784;-56
2022/04/12 06:19:26;;;;;;;;;78.25;63.00;10.10;50.20;;;;;;4955720;28;8784;-55
2022/04/12 06:21:51;;;;;;;;;71.75;57.75;10.20;50.80;;;;;;4956013;29;8970;-55
2022/04/12 06:24:18;;;;;;;;;81.25;65.75;10.20;50.40;;;;;;4955707;29;8820;-56
2022/04/12 06:26:44;;;;;;;;;84.00;68.50;10.40;49.90;;;;;;4955973;28;8764;-57
2022/04/12 06:29:10;;;;;;;;;79.25;67.00;10.60;49.60;;;;;;4959453;28;8776;-56
2022/04/12 06:31:35;;;;;;;;;88.25;72.00;11.00;49.00;;;;;;4959508;28;8799;-55
2022/04/12 06:34:01;;;;;;;;;88.75;72.25;11.10;48.60;;;;;;4959578;28;9423;-55
2022/04/12 06:36:27;;;;;;;;;87.25;67.25;11.20;48.10;;;;;;4959220;28;8792;-55
2022/04/12 06:38:54;;;;;;;;;76.50;61.00;10.70;49.00;;;;;;4959231;28;8776;-56
2022/04/12 06:41:20;;;;;;;;;80.75;63.00;10.70;49.30;;;;;;4959201;28;8854;-57
2022/04/12 06:43:45;;;;;;;;;79.50;66.75;11.20;48.20;;;;;;4959318;28;8811;-57
2022/04/12 06:46:11;;;;;;;;;78.00;62.50;11.20;48.40;;;;;;4959051;28;8870;-55
2022/04/12 06:48:37;;;;;;;;;73.50;59.25;11.60;47.80;;;;;;4959252;28;8776;-57
2022/04/12 06:51:03;;;;;;;;;77.25;60.00;11.60;47.70;;;;;;4958803;28;9516;-56
2022/04/12 06:53:28;;;;;;;;;74.75;59.25;11.60;48.60;;;;;;4958947;28;8812;-57
2022/04/12 06:55:54;;;;;;;;;76.00;60.75;11.80;47.40;;;;;;4958911;28;8800;-56
2022/04/12 06:58:20;;;;;;;;;75.75;57.50;11.80;47.60;;;;;;4959242;28;8795;-58
2022/04/12 07:00:46;;;;;;;;;74.00;58.75;12.10;46.90;;;;;;4958774;28;8784;-55
2022/04/12 07:03:11;;;;;;;;;75.75;57.75;11.60;47.20;;;;;;4958658;28;8850;-55
2022/04/12 07:05:37;;;;;;;;;72.50;57.00;11.90;46.90;;;;;;4958985;28;8772;-58
2022/04/12 07:08:04;;;;;;;;;69.50;56.75;12.20;46.40;;;;;;4958753;28;9411;-56
2022/04/12 07:10:30;;;;;;;;;65.75;54.25;12.10;46.40;;;;;;4958684;28;8860;-56
2022/04/12 07:12:55;;;;;;;;;65.75;53.25;12.00;47.40;;;;;;4958603;28;8808;-56
2022/04/12 07:15:21;;;;;;;;;61.50;50.75;12.30;46.30;;;;;;4958767;28;8911;-58
2022/04/12 07:17:47;;;;;;;;;67.75;55.25;12.50;46.00;;;;;;4958535;28;8773;-57
2022/04/12 07:20:13;;;;;;;;;66.25;52.00;12.70;45.50;;;;;;4958619;28;8772;-55
2022/04/12 07:22:39;;;;;;;;;61.25;50.75;12.50;45.40;;;;;;4958392;28;8788;-58
2022/04/12 07:25:05;;;;;;;;;62.25;50.50;12.50;45.40;;;;;;4958410;28;8788;-59
2022/04/12 07:27:36;;;;;;;;;65.25;52.25;12.50;46.40;;;;;;4958339;28;8787;-59
2022/04/12 07:30:04;;;;;;;;;58.25;47.25;12.70;45.90;;;;;;4958369;28;8780;-59
2022/04/12 07:32:30;;;;;;;;;58.75;48.50;11.90;47.40;;;;;;4958194;28;8855;-59
2022/04/12 07:34:55;;;;;;;;;55.00;46.50;12.10;47.20;;;;;;4958443;28;8792;-60
2022/04/12 07:37:21;;;;;;;;;54.75;44.75;12.50;46.30;;;;;;4958036;28;9484;-60
2022/04/12 07:39:47;;;;;;;;;54.75;44.50;12.70;44.30;;;;;;4957214;28;8811;-59
2022/04/12 07:42:13;;;;;;;;;60.75;49.50;13.00;44.40;;;;;;4958279;28;8792;-59
2022/04/12 07:44:39;;;;;;;;;50.75;43.00;13.10;45.00;;;;;;4958110;28;8812;-60
2022/04/12 07:47:05;;;;;;;;;62.00;51.00;13.30;44.50;;;;;;4958271;28;8811;-60
2022/04/12 07:49:31;;;;;;;;;54.25;45.50;13.30;44.70;;;;;;4958172;28;8796;-59
2022/04/12 07:51:57;;;;;;;;;56.00;45.00;13.00;46.50;;;;;;4955715;28;8852;-59
2022/04/12 07:54:22;;;;;;;;;62.50;50.00;13.30;46.10;;;;;;4957897;28;8788;-59
2022/04/12 07:56:48;;;;;;;;;59.25;48.00;13.10;47.30;;;;;;4957885;28;8804;-60
2022/04/12 07:59:14;;;;;;;;;60.50;48.25;13.30;46.10;;;;;;4957833;28;8772;-59
2022/04/12 08:01:40;;;;;;;;;51.50;41.50;13.50;46.10;;;;;;4957685;28;8871;-60
2022/04/12 08:04:06;;;;;;;;;43.25;37.50;13.60;45.30;;;;;;4956724;28;8835;-59
2022/04/12 08:06:31;;;;;;;;;53.00;43.25;13.90;44.60;;;;;;4956694;28;8793;-60
2022/04/12 08:08:57;;;;;;;;;38.00;33.50;14.10;44.70;;;;;;4957882;28;8768;-60
2022/04/12 08:11:23;;;;;;;;;34.75;32.75;14.10;44.60;;;;;;4957834;28;8776;-59
2022/04/12 08:13:49;;;;;;;;;41.25;37.00;14.30;44.00;;;;;;4957793;28;9446;-59
2022/04/12 08:16:17;;;;;;;;;35.25;34.00;14.20;45.00;;;;;;4957691;28;8788;-59
2022/04/12 08:18:43;;;;;;;;;35.25;34.25;13.90;44.70;;;;;;4957314;28;8910;-57
2022/04/12 08:21:09;;;;;;;;;30.00;27.50;14.20;44.80;;;;;;4957542;28;8793;-58
2022/04/12 08:23:35;;;;;;;;;26.50;26.50;14.50;43.90;;;;;;4957521;28;8820;-63
2022/04/12 08:26:00;;;;;;;;;22.50;22.25;14.50;44.50;;;;;;4957264;28;9444;-60
2022/04/12 08:28:26;;;;;;;;;28.75;27.25;14.60;44.10;;;;;;4957500;28;8902;-60
2022/04/12 08:30:52;;;;;;;;;29.25;27.50;14.80;44.30;;;;;;4957214;28;8792;-59
2022/04/12 08:33:18;;;;;;;;;25.25;24.50;14.90;43.90;;;;;;4957489;28;8768;-59
2022/04/12 08:35:44;;;;;;;;;24.00;24.00;14.90;42.30;;;;;;4956975;28;8894;-60
2022/04/12 08:38:11;;;;;;;;;25.75;25.00;15.10;43.40;;;;;;4957152;28;8954;-60
2022/04/12 08:40:38;;;;;;;;;21.33;20.67;14.90;42.90;;;;;;4957076;28;8882;-60
2022/04/12 08:43:06;;;;;;;;;23.00;21.33;15.10;42.10;;;;;;4956904;28;9002;-58
2022/04/12 08:45:35;;;;;;;;;22.33;20.00;15.30;41.40;;;;;;4955951;28;8796;-59
2022/04/12 08:48:02;;;;;;;;;25.75;24.00;15.40;41.30;;;;;;4956891;28;9483;-59
2022/04/12 08:50:28;;;;;;;;;23.00;22.33;14.80;42.10;;;;;;4956462;28;8896;-59
2022/04/12 08:52:54;;;;;;;;;17.67;17.67;14.90;41.50;;;;;;4957440;28;8959;-59
2022/04/12 08:55:20;;;;;;;;;18.33;16.33;15.00;40.60;;;;;;4956796;28;8795;-59
2022/04/12 08:57:46;;;;;;;;;16.00;14.00;15.10;40.80;;;;;;4957057;28;8776;-60
2022/04/12 09:00:12;;;;;;;;;20.00;20.00;14.70;42.50;;;;;;4956609;28;8784;-62
2022/04/12 09:02:39;;;;;;;;;23.00;21.00;14.90;41.60;;;;;;4956633;28;8816;-60
2022/04/12 09:05:08;;;;;;;;;17.33;14.00;15.10;41.00;;;;;;4956588;28;8872;-58
2022/04/12 09:07:45;;;;;;;;;17.67;16.00;15.10;39.40;;;;;;4956871;28;8789;-65
2022/04/12 09:10:10;;;;;;;;;16.00;16.00;15.40;39.00;;;;;;4956638;28;8796;-55
2022/04/12 09:12:36;;;;;;;;;18.00;16.67;15.50;38.60;;;;;;4956691;28;8772;-58
2022/04/12 09:15:10;;;;;;;;;13.67;13.67;15.80;38.80;;;;;;4956508;28;8792;-58
2022/04/12 09:17:37;;;;;;;;;16.67;16.67;15.50;38.70;;;;;;4956659;28;8799;-61
2022/04/12 09:20:10;;;;;;;;;11.67;10.33;16.00;37.50;;;;;;4956525;28;8776;-62
2022/04/12 09:22:35;;;;;;;;;17.00;15.67;16.20;37.60;;;;;;4956464;28;8788;-61
2022/04/12 09:25:05;;;;;;;;;9.67;9.67;16.10;38.60;;;;;;4956524;28;8842;-63
2022/04/12 09:27:32;;;;;;;;;11.33;11.33;15.50;39.00;;;;;;4956369;28;8819;-59
2022/04/12 09:30:02;;;;;;;;;13.67;13.33;15.80;36.60;;;;;;4956271;28;8819;-61
2022/04/12 09:32:44;;;;;;;;;11.00;11.00;16.20;35.10;;;;;;4956380;28;8808;-59
2022/04/12 09:35:10;;;;;;;;;11.00;10.00;16.40;33.80;;;;;;4956202;28;8760;-57
2022/04/12 09:37:38;;;;;;;;;12.00;9.67;16.50;36.10;;;;;;4956006;28;8830;-59
2022/04/12 09:40:11;;;;;;;;;10.00;10.00;16.70;36.00;;;;;;4956098;28;8784;-59
2022/04/12 09:43:05;;;;;;;;;12.67;12.67;17.10;35.30;;;;;;4955821;28;8918;-56
2022/04/12 09:45:33;;;;;;;;;7.00;7.00;16.90;33.90;;;;;;4956269;28;8789;-56
2022/04/12 09:48:05;;;;;;;;;9.33;8.33;16.90;33.40;;;;;;4956293;28;8796;-56
2022/04/12 09:50:32;;;;;;;;;8.00;8.00;17.00;32.50;;;;;;4955864;28;8899;-55
2022/04/12 09:53:10;;;;;;;;;11.00;10.00;17.00;32.10;;;;;;4955912;28;8807;-56
2022/04/12 09:55:41;;;;;;;;;11.33;9.00;17.10;34.00;;;;;;4956235;28;8969;-55
2022/04/12 09:58:10;;;;;;;;;9.67;9.67;17.50;31.80;;;;;;4956179;28;9534;-58
2022/04/12 10:00:36;;;;;;;;;7.33;7.33;17.40;32.70;;;;;;4956243;28;8791;-55
2022/04/12 10:03:08;;;;;;;;;8.00;8.00;17.40;32.30;;;;;;4957837;28;9043;-61
2022/04/12 10:05:34;;;;;;;;;10.67;9.33;17.60;33.80;;;;;;4959370;28;8788;-55
2022/04/12 10:08:03;;;;;;;;;11.67;11.67;18.00;33.80;;;;;;4958546;28;8876;-57
2022/04/12 10:10:29;;;;;;;;;9.33;9.33;18.20;34.40;;;;;;4958429;28;8804;-59
2022/04/12 10:12:57;;;;;;;;;9.33;9.33;18.20;34.10;;;;;;4958924;28;8769;-55
2022/04/12 10:15:24;;;;;;;;;9.67;9.33;18.00;32.10;;;;;;4958639;28;8776;-57
2022/04/12 10:17:51;;;;;;;;;8.67;8.67;18.30;32.60;;;;;;4959293;28;8797;-57
2022/04/12 10:20:18;;;;;;;;;5.33;5.33;18.40;34.30;;;;;;4959830;28;8793;-55
2022/04/12 10:22:47;;;;;;;;;6.67;6.67;18.20;34.40;;;;;;4959723;28;8792;-57
2022/04/12 10:25:21;;;;;;;;;8.67;8.00;18.20;34.30;;;;;;4959458;28;8800;-59
2022/04/12 10:27:50;;;;;;;;;9.00;9.00;18.30;33.30;;;;;;4959790;28;8913;-58
2022/04/12 10:30:18;;;;;;;;;7.33;6.00;18.60;32.40;;;;;;4959359;28;8789;-57
2022/04/12 10:33:04;;;;;;;;;10.00;8.67;18.70;33.50;;;;;;4959306;28;8836;-56
2022/04/12 10:35:54;;;;;;;;;6.67;6.33;19.20;30.70;;;;;;4959288;28;8894;-57
2022/04/12 10:38:22;;;;;;;;;10.00;10.00;19.00;31.30;;;;;;4959237;28;9428;-58
2022/04/12 10:40:51;;;;;;;;;11.00;11.00;19.30;30.90;;;;;;4959475;28;9443;-58
2022/04/12 10:43:33;;;;;;;;;11.33;10.00;19.20;29.90;;;;;;4959355;28;8894;-58
2022/04/12 10:46:01;;;;;;;;;8.00;8.00;18.90;32.10;;;;;;4959159;28;8800;-58
2022/04/12 10:48:29;;;;;;;;;7.67;7.67;19.00;33.90;;;;;;4959381;28;8883;-59
2022/04/12 10:50:56;;;;;;;;;10.00;9.00;18.80;33.10;;;;;;4959100;28;8882;-56
2022/04/12 10:53:40;;;;;;;;;8.33;8.33;19.00;32.90;;;;;;4954225;28;8812;-59
2022/04/12 10:56:16;;;;;;;;;10.00;10.00;19.00;31.10;;;;;;4953251;28;8811;-59
2022/04/12 10:58:44;;;;;;;;;8.00;7.00;19.70;32.50;;;;;;4958870;28;8796;-59
2022/04/12 11:01:15;;;;;;;;;6.67;6.67;19.70;31.40;;;;;;4958960;28;8795;-59
2022/04/12 11:03:40;;;;;;;;;10.00;10.00;19.70;30.60;;;;;;4959108;28;8839;-59
2022/04/12 11:06:32;;;;;;;;;11.00;9.33;20.00;31.60;;;;;;4958499;28;8807;-60
2022/04/12 11:09:11;;;;;;;;;6.33;6.33;20.20;31.50;;;;;;4958707;28;8983;-57
2022/04/12 11:11:41;;;;;;;;;10.33;9.00;20.80;30.70;;;;;;4958873;28;8784;-60
2022/04/12 11:14:23;;;;;;;;;8.33;8.33;20.60;30.70;;;;;;4957346;28;8796;-60
2022/04/12 11:16:51;;;;;;;;;6.67;6.67;20.50;31.90;;;;;;4958474;28;8804;-60
2022/04/12 11:19:24;;;;;;;;;9.67;8.67;20.60;30.80;;;;;;4958618;28;8788;-60
2022/04/12 11:21:55;;;;;;;;;8.67;8.67;20.30;30.90;;;;;;4958417;28;8788;-59
2022/04/12 11:24:22;;;;;;;;;8.00;8.00;20.80;31.10;;;;;;4954609;28;8816;-60
2022/04/12 11:27:02;;;;;;;;;10.67;10.67;21.50;30.90;;;;;;4947806;29;11537;-58
2022/04/12 11:29:29;;;;;;;;;8.00;8.00;21.70;30.70;;;;;;4939089;29;8853;-59
2022/04/12 11:31:56;;;;;;;;;8.67;8.67;21.80;30.40;;;;;;4940158;28;11580;-60
2022/04/12 11:34:25;;;;;;;;;10.67;8.33;22.10;30.00;;;;;;4957233;28;11509;-59
2022/04/12 11:37:11;;;;;;;;;10.33;10.00;21.70;30.10;;;;;;4947883;28;8827;-58
2022/04/12 11:39:40;;;;;;;;;9.33;9.33;21.50;29.50;;;;;;4940961;28;8791;-57
2022/04/12 11:42:08;;;;;;;;;10.00;10.00;21.60;29.70;;;;;;4938781;29;11551;-58
2022/04/12 11:44:35;;;;;;;;;8.33;8.33;21.40;30.20;;;;;;4938800;29;11577;-59
2022/04/12 11:47:08;;;;;;;;;12.00;10.33;21.50;28.80;;;;;;4947118;28;8814;-57
2022/04/12 11:49:40;;;;;;;;;8.00;8.00;21.80;28.70;;;;;;4939860;28;11577;-58
2022/04/12 11:52:09;;;;;;;;;5.33;5.33;21.80;29.20;;;;;;4949645;28;11575;-57
2022/04/12 11:54:39;;;;;;;;;5.67;5.67;21.80;28.00;;;;;;4954370;28;11521;-58
2022/04/12 11:57:09;;;;;;;;;8.00;8.00;22.30;28.40;;;;;;4951712;28;11633;-58
2022/04/12 11:59:46;;;;;;;;;7.67;7.67;21.80;28.40;;;;;;4947019;29;11540;-59
2022/04/12 12:02:14;;;;;;;;;9.00;8.67;21.40;28.80;;;;;;4947169;28;11572;-59
2022/04/12 12:04:51;;;;;;;;;8.33;8.33;21.80;29.70;;;;;;4953212;29;11583;-59
2022/04/12 12:07:18;;;;;;;;;6.33;5.67;22.10;28.10;;;;;;4943124;29;11602;-58
2022/04/12 12:09:57;;;;;;;;;11.67;10.33;22.20;27.80;;;;;;4938439;29;11640;-59
2022/04/12 12:12:40;;;;;;;;;7.00;7.00;21.90;29.10;;;;;;4938296;29;11582;-58
2022/04/12 12:15:24;;;;;;;;;10.67;10.67;21.30;28.60;;;;;;4940725;28;12315;-59
2022/04/12 12:17:52;;;;;;;;;10.67;10.67;21.10;29.30;;;;;;4943784;29;12242;-59
2022/04/12 12:20:21;;;;;;;;;9.00;9.00;21.70;28.50;;;;;;4938463;29;9426;-60
2022/04/12 12:22:50;;;;;;;;;8.00;8.00;22.20;27.80;;;;;;4951422;28;11578;-59
2022/04/12 12:25:19;;;;;;;;;7.00;7.00;22.30;28.30;;;;;;4967648;28;11516;-59
2022/04/12 12:27:50;;;;;;;;;6.50;6.00;22.80;28.70;;;;;;4943116;29;11516;-59
2022/04/12 12:30:26;;;;;;;;;6.75;6.75;23.00;26.40;;;;;;4956526;28;11506;-59
2022/04/12 12:32:54;;;;;;;;;4.00;4.00;22.10;26.80;;;;;;4957402;28;12199;-57
2022/04/12 12:35:23;;;;;;;;;5.00;5.00;23.50;27.60;;;;;;4956986;28;11494;-59
2022/04/12 12:37:49;;;;;;;;;3.25;3.25;27.60;23.10;;;;;;4950903;28;11525;-60
2022/04/12 12:40:20;;;;;;;;;8.25;8.25;34.10;20.60;;;;;;4940248;28;11538;-59
2022/04/12 12:42:48;;;;;;;;;5.00;5.00;39.60;16.80;;;;;;4938097;29;8767;-59
2022/04/12 12:45:20;;;;;;;;;4.00;4.00;41.90;15.50;;;;;;4943156;28;11530;-60
2022/04/12 12:47:49;;;;;;;;;4.25;4.25;41.10;15.50;;;;;;4955173;28;11590;-59
2022/04/12 12:50:17;;;;;;;;;4.00;4.00;40.90;15.40;;;;;;4946373;28;11589;-60